Time;durP1;ratioP1;P1;durP2;ratioP2;P2;SDS_P1;SDS_P2;PMS_P1;PMS_P2;Temp;Humidity;BMP_temperature;BMP_pressure;BME280_temperature;BME280_humidity;BME280_pressure;Samples;Min_cycle;Max_cycle;Signal;HPM_P1;HPM_P2
2023/04/22 00:01:26;;;;;;;17.70;7.60;;;;;;;8.86;100.00;99152.31;1714480;83;21684;-86
2023/04/22 00:04:33;;;;;;;24.00;7.72;;;;;;;8.85;100.00;99153.36;1692670;84;21175;-86
2023/04/22 00:07:38;;;;;;;22.27;7.78;;;;;;;8.80;100.00;99155.82;1708787;83;21235;-86
2023/04/22 00:10:45;;;;;;;32.93;8.73;;;;;;;8.75;100.00;99152.83;1692661;84;21231;-86
2023/04/22 00:13:50;;;;;;;25.12;9.65;;;;;;;8.76;100.00;99159.97;1714641;83;21149;-86
2023/04/22 00:20:47;;;;;;;27.98;9.08;;;;;;;8.74;100.00;99162.55;1711143;83;21184;-86
2023/04/22 00:23:53;;;;;;;25.27;9.70;;;;;;;8.63;100.00;99156.56;1717362;83;21186;-86
2023/04/22 00:26:58;;;;;;;27.13;11.05;;;;;;;8.61;100.00;99171.41;1709230;83;21188;-86
2023/04/22 00:30:05;;;;;;;32.42;10.60;;;;;;;8.54;100.00;99171.86;1693540;84;21742;-86
2023/04/22 00:33:11;;;;;;;39.98;13.10;;;;;;;8.58;100.00;99173.17;1714215;83;21157;-85
2023/04/22 00:36:18;;;;;;;35.20;12.55;;;;;;;8.53;100.00;99175.63;1712223;83;21214;-85
2023/04/22 00:39:24;;;;;;;31.10;12.20;;;;;;;8.53;100.00;99177.83;1710897;83;21183;-86
2023/04/22 00:42:29;;;;;;;34.75;12.78;;;;;;;8.51;100.00;99181.25;1693925;84;21168;-86
2023/04/22 00:45:35;;;;;;;34.58;12.53;;;;;;;8.55;100.00;99187.17;1712811;83;21239;-86
2023/04/22 00:48:41;;;;;;;37.63;13.05;;;;;;;8.53;100.00;99190.61;1713049;83;21189;-86
2023/04/22 00:51:47;;;;;;;32.67;11.18;;;;;;;8.58;100.00;99190.88;1714211;83;21172;-86
2023/04/22 00:54:53;;;;;;;28.75;11.30;;;;;;;8.56;100.00;99188.36;1679063;84;21231;-86
2023/04/22 00:57:58;;;;;;;31.10;12.82;;;;;;;8.62;100.00;99189.47;1683995;84;21837;-85
2023/04/22 01:01:04;;;;;;;34.15;13.53;;;;;;;8.66;100.00;99193.51;1680303;85;21138;-86
2023/04/22 01:04:13;;;;;;;29.45;13.32;;;;;;;8.62;100.00;99186.75;1684760;84;21191;-86
2023/04/22 01:07:18;;;;;;;33.38;13.30;;;;;;;8.61;100.00;99183.67;1680864;85;21576;-86
2023/04/22 01:10:24;;;;;;;34.33;13.18;;;;;;;8.63;100.00;99189.80;1688405;84;21232;-86
2023/04/22 01:13:31;;;;;;;24.90;13.72;;;;;;;8.59;100.00;99192.56;1687081;84;21681;-86
2023/04/22 01:16:38;;;;;;;29.42;13.20;;;;;;;8.55;100.00;99195.34;1669686;84;21216;-86
2023/04/22 01:19:43;;;;;;;30.20;13.58;;;;;;;8.58;100.00;99190.88;1686670;84;21850;-87
2023/04/22 01:22:51;;;;;;;41.60;14.38;;;;;;;8.58;100.00;99189.52;1683453;85;21200;-86
2023/04/22 01:25:56;;;;;;;34.83;14.38;;;;;;;8.60;100.00;99186.08;1677009;84;21203;-86
2023/04/22 01:29:01;;;;;;;42.73;16.37;;;;;;;8.58;100.00;99190.88;1686413;84;21185;-86
2023/04/22 01:32:06;;;;;;;36.45;16.67;;;;;;;8.55;100.00;99185.80;1686917;84;21270;-86
2023/04/22 01:35:12;;;;;;;38.28;17.12;;;;;;;8.58;100.00;99187.64;1684607;84;21865;-87
2023/04/22 01:38:18;;;;;;;40.35;19.00;;;;;;;8.45;100.00;99185.58;1683981;84;21210;-86
2023/04/22 01:41:23;;;;;;;32.33;14.15;;;;;;;8.45;100.00;99192.91;1677348;84;21215;-86
2023/04/22 01:44:29;;;;;;;35.78;13.93;;;;;;;8.43;100.00;99197.72;1692687;84;21201;-86
2023/04/22 01:47:34;;;;;;;32.30;12.90;;;;;;;8.52;100.00;99198.47;1681419;84;21204;-86
2023/04/22 01:50:40;;;;;;;25.00;11.25;;;;;;;8.51;100.00;99192.66;1696360;84;21219;-86
2023/04/22 01:53:45;;;;;;;29.55;11.53;;;;;;;8.47;100.00;99195.44;1674730;85;21149;-86
2023/04/22 01:56:59;;;;;;;29.32;11.70;;;;;;;8.44;100.00;99193.44;1678919;84;21235;-86
2023/04/22 02:00:05;;;;;;;27.45;11.12;;;;;;;8.39;100.00;99191.80;1687442;84;21236;-86
2023/04/22 02:03:11;;;;;;;25.95;12.90;;;;;;;8.42;100.00;99186.47;1683064;84;21233;-86
2023/04/22 02:06:17;;;;;;;34.25;12.82;;;;;;;8.41;100.00;99193.80;1682709;84;21194;-86
2023/04/22 02:09:23;;;;;;;26.70;12.18;;;;;;;8.39;100.00;99190.44;1683498;84;21181;-86
2023/04/22 02:12:28;;;;;;;32.80;12.68;;;;;;;8.37;100.00;99193.85;1695219;84;21199;-86
2023/04/22 02:15:33;;;;;;;30.88;12.63;;;;;;;8.37;100.00;99188.41;1680843;84;21904;-86
2023/04/22 02:18:39;;;;;;;21.68;11.85;;;;;;;8.30;100.00;99191.54;1685278;84;21187;-86
2023/04/22 02:21:45;;;;;;;27.80;12.68;;;;;;;8.29;100.00;99193.94;1680470;85;21171;-86
2023/04/22 02:24:51;;;;;;;22.73;10.28;;;;;;;8.26;100.00;99188.86;1685704;84;21195;-86
2023/04/22 02:27:56;;;;;;;21.40;11.35;;;;;;;8.28;100.00;99197.70;1683311;85;21470;-86
2023/04/22 02:31:01;;;;;;;20.52;11.00;;;;;;;8.21;100.00;99195.39;1688564;84;21271;-86
2023/04/22 02:34:07;;;;;;;21.25;10.25;;;;;;;8.20;100.00;99196.43;1653996;86;21227;-86
2023/04/22 02:37:12;;;;;;;18.70;12.43;;;;;;;8.19;100.00;99198.84;1697090;84;21215;-86
2023/04/22 02:40:18;;;;;;;20.10;11.75;;;;;;;8.07;100.00;99198.96;1672307;85;21236;-86
2023/04/22 02:43:23;;;;;;;21.37;13.38;;;;;;;8.10;100.00;99206.77;1686710;84;21250;-86
2023/04/22 02:46:28;;;;;;;24.52;12.23;;;;;;;8.12;100.00;99204.69;1684679;84;21181;-86
2023/04/22 02:49:33;;;;;;;23.45;13.68;;;;;;;8.13;100.00;99205.85;1686490;84;21194;-85
2023/04/22 02:52:40;;;;;;;31.10;13.88;;;;;;;8.08;100.00;99203.37;1684097;84;21250;-86
2023/04/22 02:55:47;;;;;;;21.17;12.75;;;;;;;7.99;100.00;99209.94;1688273;84;21166;-86
2023/04/22 02:58:53;;;;;;;17.95;11.88;;;;;;;7.96;100.00;99210.33;1689679;84;21820;-86
2023/04/22 03:01:59;;;;;;;23.38;11.93;;;;;;;7.85;100.00;99212.45;1681511;84;21721;-85
2023/04/22 03:05:25;;;;;;;25.82;12.90;;;;;;;7.88;100.00;99217.53;1624070;87;21215;-85
2023/04/22 03:08:32;;;;;;;23.30;13.83;;;;;;;7.94;100.00;99227.67;1623742;87;21238;-85
2023/04/22 03:11:38;;;;;;;22.90;12.20;;;;;;;7.83;100.00;99230.86;1709769;83;21800;-86
2023/04/22 03:14:43;;;;;;;21.25;11.50;;;;;;;7.89;100.00;99224.66;1715156;83;21203;-86
2023/04/22 03:17:51;;;;;;;21.82;11.08;;;;;;;7.87;100.00;99236.78;1693728;84;21206;-86
2023/04/22 03:20:57;;;;;;;16.70;11.38;;;;;;;7.89;100.00;99234.19;1685682;84;21730;-85
2023/04/22 03:24:03;;;;;;;15.85;10.75;;;;;;;7.84;100.00;99242.07;1676260;85;21864;-86
2023/04/22 03:26:57;;;;;;;14.55;11.08;;;;;;;7.89;100.00;99242.88;1676380;85;21274;-86
2023/04/22 03:30:02;;;;;;;18.80;11.12;;;;;;;7.88;100.00;99245.28;1684712;84;21206;-85
2023/04/22 03:33:10;;;;;;;15.90;11.25;;;;;;;7.91;100.00;99252.56;1675139;84;21191;-86
2023/04/22 03:36:18;;;;;;;19.52;11.22;;;;;;;7.91;100.00;99255.81;1686548;84;21230;-86
2023/04/22 03:39:24;;;;;;;17.92;10.85;;;;;;;8.09;100.00;99256.80;1680127;84;21194;-86
2023/04/22 03:42:30;;;;;;;17.12;10.25;;;;;;;8.14;100.00;99263.41;1689107;84;21213;-86
2023/04/22 03:45:37;;;;;;;20.65;9.93;;;;;;;8.11;100.00;99267.01;1700445;84;21775;-87
2023/04/22 03:48:44;;;;;;;15.68;10.70;;;;;;;8.05;100.00;99274.57;1696325;84;21732;-86
2023/04/22 03:51:52;;;;;;;17.50;10.15;;;;;;;8.18;100.00;99273.39;1681530;84;21200;-86
2023/04/22 03:55:00;;;;;;;19.95;10.65;;;;;;;7.98;100.00;99281.77;1661975;84;21180;-86
2023/04/22 03:58:06;;;;;;;14.65;10.15;;;;;;;7.95;100.00;99280.25;1680332;84;21810;-86
2023/04/22 04:01:13;;;;;;;16.45;10.68;;;;;;;8.04;100.00;99277.78;1680168;84;21217;-86
2023/04/22 04:04:22;;;;;;;21.80;11.83;;;;;;;8.13;100.00;99285.36;1708827;83;21781;-85
2023/04/22 04:07:31;;;;;;;21.15;11.95;;;;;;;8.11;100.00;99284.20;1679946;84;21179;-86
2023/04/22 04:10:37;;;;;;;21.15;11.88;;;;;;;8.09;100.00;99298.53;1683584;84;21318;-86
2023/04/22 04:13:42;;;;;;;21.87;11.93;;;;;;;8.10;100.00;99290.68;1678670;84;21318;-86
2023/04/22 04:16:51;;;;;;;22.98;10.80;;;;;;;8.22;100.00;99294.30;1685221;84;21321;-86
2023/04/22 04:19:58;;;;;;;22.40;11.68;;;;;;;8.39;100.00;99306.24;1680287;84;21812;-86
2023/04/22 04:23:05;;;;;;;20.37;11.90;;;;;;;8.42;100.00;99302.28;1677806;84;21181;-86
2023/04/22 04:26:10;;;;;;;21.12;11.18;;;;;;;8.50;100.00;99308.17;1714711;83;21188;-86
2023/04/22 04:29:22;;;;;;;22.22;10.40;;;;;;;8.57;100.00;99303.68;1706978;83;21164;-86
2023/04/22 04:32:39;;;;;;;24.20;9.95;;;;;;;8.62;100.00;99312.14;1713325;83;21196;-87
2023/04/22 04:35:46;;;;;;;25.08;9.78;;;;;;;8.60;100.00;99307.37;1715739;83;21786;-86
2023/04/22 04:38:55;;;;;;;16.07;9.08;;;;;;;8.65;100.00;99311.22;1712253;83;21127;-86
2023/04/22 04:42:01;;;;;;;16.67;9.10;;;;;;;8.66;100.00;99319.75;1715618;83;22490;-86
2023/04/22 04:45:08;;;;;;;21.95;9.13;;;;;;;8.76;100.00;99312.65;1679676;84;21132;-86
2023/04/22 04:48:13;;;;;;;23.00;10.03;;;;;;;8.80;100.00;99318.05;1689088;84;21831;-87
2023/04/22 04:51:22;;;;;;;22.05;9.98;;;;;;;8.93;100.00;99318.20;1677182;84;21185;-86
2023/04/22 04:54:28;;;;;;;25.45;10.48;;;;;;;8.88;100.00;99320.66;1711243;83;21198;-87
2023/04/22 04:57:34;;;;;;;26.20;12.53;;;;;;;8.89;100.00;99326.47;1711925;82;21193;-86
2023/04/22 05:00:39;;;;;;;24.40;10.43;;;;;;;8.94;100.00;99329.47;1709512;83;21485;-86
2023/04/22 05:03:46;;;;;;;25.08;10.72;;;;;;;9.02;100.00;99326.30;1710805;83;22508;-86
2023/04/22 05:06:52;;;;;;;16.73;9.40;;;;;;;9.05;100.00;99339.56;1694254;84;21190;-86
2023/04/22 05:09:59;;;;;;;18.20;9.45;;;;;;;9.04;100.00;99340.61;1713344;83;21178;-86
2023/04/22 05:13:05;;;;;;;16.97;8.33;;;;;;;9.08;100.00;99337.80;1715128;83;21168;-86
2023/04/22 05:16:11;;;;;;;25.02;9.55;;;;;;;9.09;100.00;99338.16;1680495;84;21243;-86
2023/04/22 05:19:16;;;;;;;21.60;9.33;;;;;;;9.11;100.00;99342.36;1713229;83;21260;-86
2023/04/22 05:22:21;;;;;;;17.98;7.95;;;;;;;9.11;100.00;99348.34;1710245;83;21216;-86
2023/04/22 05:25:26;;;;;;;22.13;8.83;;;;;;;9.12;100.00;99350.03;1713168;83;21195;-86
2023/04/22 05:28:33;;;;;;;15.13;8.78;;;;;;;9.22;100.00;99351.94;1717103;83;21593;-86
2023/04/22 05:31:39;;;;;;;18.23;8.68;;;;;;;9.30;100.00;99353.72;1716304;83;21780;-86
2023/04/22 05:34:46;;;;;;;21.45;8.53;;;;;;;9.37;100.00;99361.48;1714258;83;21770;-86
2023/04/22 05:37:53;;;;;;;24.47;8.50;;;;;;;9.33;100.00;99356.92;1709685;83;21187;-86
2023/04/22 05:40:59;;;;;;;25.50;9.03;;;;;;;9.29;100.00;99361.06;1714739;83;21206;-86
2023/04/22 05:44:04;;;;;;;22.87;8.70;;;;;;;9.39;100.00;99364.33;1683354;84;21813;-86
2023/04/22 05:47:10;;;;;;;22.80;11.15;;;;;;;9.44;100.00;99365.97;1686805;84;21161;-86
2023/04/22 05:50:18;;;;;;;25.45;10.58;;;;;;;9.46;100.00;99369.89;1676228;84;21131;-86
2023/04/22 05:53:26;;;;;;;31.17;15.78;;;;;;;9.56;100.00;99369.58;1688994;84;21191;-86
2023/04/22 05:56:33;;;;;;;25.97;10.32;;;;;;;9.63;100.00;99365.02;1676466;84;21172;-87
2023/04/22 05:59:39;;;;;;;22.37;9.18;;;;;;;9.71;100.00;99372.58;1709642;83;21210;-87
2023/04/22 06:02:46;;;;;;;23.62;8.20;;;;;;;9.78;99.83;99364.44;1693173;84;21278;-86
2023/04/22 06:05:53;;;;;;;31.73;15.05;;;;;;;9.90;98.98;99382.02;1656630;86;21189;-86
2023/04/22 06:08:59;;;;;;;20.68;8.90;;;;;;;9.85;98.33;99370.83;1647184;86;21182;-86
2023/04/22 06:12:05;;;;;;;262.60;174.07;;;;;;;9.83;98.42;99376.99;1669134;85;21212;-86
2023/04/22 06:15:11;;;;;;;71.28;47.38;;;;;;;9.79;98.05;99377.08;1652833;85;21274;-86
2023/04/22 06:18:16;;;;;;;27.67;15.50;;;;;;;9.90;98.28;99384.75;1667508;85;21743;-86
2023/04/22 06:21:23;;;;;;;79.87;47.85;;;;;;;9.99;97.87;99386.31;1687780;85;21179;-86
2023/04/22 06:24:28;;;;;;;35.33;18.87;;;;;;;9.97;97.31;99393.00;1668968;85;21246;-86
2023/04/22 06:27:33;;;;;;;18.45;10.53;;;;;;;10.05;96.94;99399.71;1660925;85;21197;-86
2023/04/22 06:30:38;;;;;;;29.87;9.93;;;;;;;10.14;96.42;99398.55;1668825;85;21237;-86
2023/04/22 06:33:44;;;;;;;20.12;9.05;;;;;;;10.28;95.77;99407.74;1653314;86;21252;-86
2023/04/22 06:36:52;;;;;;;24.05;9.03;;;;;;;10.33;95.06;99404.42;1638403;86;21297;-86
2023/04/22 06:39:52;;;;;;;23.42;7.97;;;;;;;10.31;94.34;99412.83;1686132;85;21176;-86
2023/04/22 06:43:03;;;;;;;17.37;7.85;;;;;;;10.32;94.68;99411.78;1645766;86;21223;-86
2023/04/22 06:46:25;;;;;;;14.45;7.37;;;;;;;10.43;94.25;99411.76;1685227;85;21212;-86
2023/04/22 06:49:43;;;;;;;19.80;7.37;;;;;;;10.55;94.15;99409.35;1686462;85;21191;-86
2023/04/22 06:52:41;;;;;;;14.25;6.35;;;;;;;10.66;94.35;99415.11;1657981;86;21237;-86
2023/04/22 06:55:27;;;;;;;23.10;9.45;;;;;;;10.76;93.33;99416.13;1667031;85;21239;-87
2023/04/22 06:58:20;;;;;;;18.55;7.58;;;;;;;10.74;91.87;99425.06;1657727;85;21233;-86
2023/04/22 07:01:06;;;;;;;21.90;6.30;;;;;;;10.77;92.12;99421.91;1670177;85;21529;-86
2023/04/22 07:04:04;;;;;;;22.60;6.75;;;;;;;10.85;90.46;99423.66;1674369;84;21377;-86
2023/04/22 07:07:03;;;;;;;20.20;5.75;;;;;;;11.08;89.22;99428.87;1678584;84;21183;-86
2023/04/22 07:09:57;;;;;;;19.05;4.67;;;;;;;11.28;87.47;99424.34;1672757;84;21220;-86
2023/04/22 07:12:46;;;;;;;16.00;4.65;;;;;;;11.45;87.03;99427.61;1671266;84;21184;-86
2023/04/22 07:15:39;;;;;;;14.15;4.80;;;;;;;11.71;85.82;99430.44;1677610;84;21239;-86
2023/04/22 07:18:25;;;;;;;15.53;4.75;;;;;;;11.74;83.58;99432.78;1694181;84;21219;-86
2023/04/22 07:21:18;;;;;;;14.78;5.12;;;;;;;11.78;84.15;99434.59;1714293;83;21169;-86
2023/04/22 07:24:04;;;;;;;16.12;5.58;;;;;;;11.74;84.06;99435.52;1709624;83;21181;-86
2023/04/22 07:26:58;;;;;;;12.68;4.95;;;;;;;11.74;83.06;99432.78;1700463;83;21240;-86
2023/04/22 07:29:44;;;;;;;17.80;5.15;;;;;;;11.60;84.14;99439.78;1694214;84;21181;-86
2023/04/22 07:32:51;;;;;;;19.15;5.92;;;;;;;11.57;83.72;99438.81;1713998;83;21189;-86
2023/04/22 07:35:55;;;;;;;15.95;5.75;;;;;;;11.58;82.59;99441.89;1682810;84;21797;-86
2023/04/22 07:39:01;;;;;;;24.92;6.03;;;;;;;11.63;82.01;99446.23;1709279;83;21191;-86
2023/04/22 07:42:08;;;;;;;24.20;5.87;;;;;;;11.64;82.31;99454.77;1713399;83;21239;-86
2023/04/22 07:45:14;;;;;;;13.35;5.15;;;;;;;11.69;81.26;99454.47;1690328;84;21112;-86
2023/04/22 07:48:20;;;;;;;12.35;5.00;;;;;;;11.59;80.16;99466.33;1710252;83;21715;-86
2023/04/22 07:51:26;;;;;;;16.93;5.97;;;;;;;11.54;80.78;99466.09;1712505;83;21197;-86
2023/04/22 07:54:32;;;;;;;12.68;4.70;;;;;;;11.50;80.46;99466.17;1679302;84;21203;-86
2023/04/22 07:57:38;;;;;;;24.92;11.45;;;;;;;11.45;80.34;99469.52;1711982;83;21384;-86
2023/04/22 08:00:44;;;;;;;16.35;8.03;;;;;;;11.40;80.82;99467.92;1674053;84;21196;-87
2023/04/22 08:03:50;;;;;;;15.93;8.93;;;;;;;11.47;81.29;99470.16;1687090;84;21189;-87
2023/04/22 08:06:57;;;;;;;15.13;7.15;;;;;;;11.58;81.40;99477.50;1649849;86;21410;-87
2023/04/22 08:10:05;;;;;;;21.93;8.88;;;;;;;11.72;81.32;99471.03;1656218;86;21202;-86
2023/04/22 08:13:11;;;;;;;18.02;8.08;;;;;;;11.88;81.11;99481.66;1658079;86;21184;-86
2023/04/22 08:16:18;;;;;;;13.55;7.20;;;;;;;12.04;79.24;99477.70;1657532;86;21202;-86
2023/04/22 08:19:23;;;;;;;9.25;4.28;;;;;;;12.08;78.51;99481.72;1657974;86;21199;-86
2023/04/22 08:22:30;;;;;;;10.38;3.67;;;;;;;12.07;76.95;99480.03;1658049;86;21554;-86
2023/04/22 08:25:36;;;;;;;12.88;4.28;;;;;;;12.01;76.93;99490.45;1656757;86;21671;-86
2023/04/22 08:28:46;;;;;;;14.18;4.80;;;;;;;11.95;76.87;99482.54;1658115;86;21210;-86
2023/04/22 08:31:51;;;;;;;14.40;4.58;;;;;;;11.91;77.47;99486.73;1658013;86;21196;-86
2023/04/22 08:34:45;;;;;;;20.17;4.37;;;;;;;11.89;78.46;99486.61;1655787;86;21195;-86
2023/04/22 08:37:52;;;;;;;15.60;3.92;;;;;;;11.88;78.23;99487.14;1657068;86;21206;-86
2023/04/22 08:40:58;;;;;;;8.20;3.77;;;;;;;11.99;77.85;99489.80;1653794;86;21219;-86
2023/04/22 08:44:08;;;;;;;10.70;4.12;;;;;;;11.98;77.95;99499.08;1653592;86;21200;-86
2023/04/22 08:47:16;;;;;;;18.17;4.12;;;;;;;12.07;77.16;99500.59;1651178;86;21172;-86
2023/04/22 08:50:15;;;;;;;10.93;3.77;;;;;;;12.28;77.16;99505.10;1656366;86;21206;-86
2023/04/22 08:53:20;;;;;;;13.13;3.42;;;;;;;12.39;77.22;99509.12;1655984;86;21242;-86
2023/04/22 08:56:27;;;;;;;7.22;2.62;;;;;;;12.50;75.45;99508.50;1654151;86;21278;-86
2023/04/22 08:59:34;;;;;;;9.20;3.08;;;;;;;12.61;73.42;99511.16;1655196;86;21809;-86
2023/04/22 09:02:40;;;;;;;14.30;3.75;;;;;;;12.72;74.02;99510.55;1658041;86;21211;-86
2023/04/22 09:05:47;;;;;;;9.48;2.67;;;;;;;12.82;74.55;99510.98;1657103;84;21829;-86
2023/04/22 09:08:54;;;;;;;9.68;3.20;;;;;;;12.97;73.32;99512.98;1712122;83;21159;-86
2023/04/22 09:12:01;;;;;;;8.38;3.35;;;;;;;13.12;72.45;99514.66;1694106;84;21178;-86
2023/04/22 09:15:08;;;;;;;11.97;2.90;;;;;;;13.21;71.52;99514.77;1710988;83;21238;-86
2023/04/22 09:18:16;;;;;;;6.95;3.05;;;;;;;13.33;70.95;99517.22;1692999;84;21227;-86
2023/04/22 09:21:23;;;;;;;10.03;2.72;;;;;;;13.29;70.12;99522.30;1720543;83;21914;-86
2023/04/22 09:24:28;;;;;;;8.58;2.75;;;;;;;13.29;68.84;99522.83;1712355;83;21236;-86
2023/04/22 09:27:33;;;;;;;8.05;2.90;;;;;;;13.32;68.44;99522.41;1714118;83;21203;-86
2023/04/22 09:30:40;;;;;;;7.65;2.30;;;;;;;13.33;67.80;99528.21;1698346;83;21193;-87
2023/04/22 09:33:47;;;;;;;8.15;3.05;;;;;;;13.24;68.78;99528.11;1677280;84;21197;-86
2023/04/22 09:36:52;;;;;;;6.35;3.20;;;;;;;13.21;69.46;99533.45;1713572;83;21782;-86
2023/04/22 09:39:58;;;;;;;9.55;3.40;;;;;;;13.15;71.47;99541.70;1693828;84;21298;-86
2023/04/22 09:43:07;;;;;;;8.90;4.00;;;;;;;12.97;74.13;99534.94;1714220;83;21773;-86
2023/04/22 09:46:13;;;;;;;14.33;4.80;;;;;;;12.73;78.38;99545.16;1693885;84;21912;-86
2023/04/22 09:49:20;;;;;;;16.48;2.67;;;;;;;12.52;79.96;99545.66;1712139;83;21176;-86
2023/04/22 09:52:31;;;;;;;9.40;2.92;;;;;;;12.35;78.09;99550.35;1673495;83;21726;-86
2023/04/22 09:55:40;;;;;;;13.13;3.70;;;;;;;12.19;77.30;99542.82;1692731;84;21218;-86
2023/04/22 09:58:46;;;;;;;14.50;5.08;;;;;;;12.20;78.21;99545.88;1711697;83;21220;-86
2023/04/22 10:01:53;;;;;;;20.70;5.78;;;;;;;12.17;78.34;99546.27;1715744;83;21780;-86
2023/04/22 10:05:00;;;;;;;13.68;4.03;;;;;;;12.25;77.69;99550.74;1712363;83;21231;-86
2023/04/22 10:08:06;;;;;;;21.05;10.25;;;;;;;12.37;78.29;99547.70;1716517;82;21207;-86
2023/04/22 10:11:13;;;;;;;23.05;9.43;;;;;;;12.49;78.04;99564.42;1712757;83;21730;-86
2023/04/22 10:14:19;;;;;;;13.83;4.12;;;;;;;12.49;76.54;99554.30;1696627;84;21218;-86
2023/04/22 10:17:25;;;;;;;7.03;3.00;;;;;;;12.37;75.44;99571.55;1668407;85;21196;-86
2023/04/22 10:20:31;;;;;;;8.95;3.00;;;;;;;12.14;75.43;99570.50;1660251;86;21216;-86
2023/04/22 10:23:40;;;;;;;11.48;3.95;;;;;;;11.91;76.28;99568.95;1686139;85;21204;-86
2023/04/22 10:30:15;;;;;;;13.30;3.27;;;;;;;11.60;79.87;99567.14;1677725;84;21761;-86
2023/04/22 10:33:35;;;;;;;9.23;3.50;;;;;;;11.52;80.90;99573.09;1693830;84;21187;-86
2023/04/22 10:36:41;;;;;;;10.23;4.90;;;;;;;11.51;81.52;99574.14;1668783;85;21224;-86
2023/04/22 10:39:49;;;;;;;17.30;8.35;;;;;;;11.59;83.30;99576.41;1664970;86;21271;-86
2023/04/22 10:43:02;;;;;;;11.90;4.37;;;;;;;11.74;83.56;99573.02;1670509;85;21208;-86
2023/04/22 10:46:06;;;;;;;13.48;2.80;;;;;;;11.89;83.56;99580.62;1677069;85;22710;-86
2023/04/22 10:49:16;;;;;;;5.67;2.40;;;;;;;11.94;83.28;99580.02;1675230;85;21220;-86
2023/04/22 10:52:35;;;;;;;6.05;2.27;;;;;;;11.99;83.18;99574.77;1675664;85;21187;-87
2023/04/22 10:55:57;;;;;;;5.55;2.45;;;;;;;12.08;84.07;99578.19;1672502;85;21727;-87
2023/04/22 10:59:06;;;;;;;6.90;2.17;;;;;;;12.28;83.58;99574.49;1678760;84;21846;-86
2023/04/22 11:02:15;;;;;;;6.12;1.90;;;;;;;12.49;81.39;99569.38;1670318;85;21213;-86
2023/04/22 11:05:34;;;;;;;6.90;2.17;;;;;;;12.63;79.80;99576.28;1665158;86;21255;-86
2023/04/22 11:08:39;;;;;;;7.47;2.62;;;;;;;12.64;79.55;99574.69;1670227;85;21247;-86
2023/04/22 11:11:46;;;;;;;4.30;2.17;;;;;;;12.62;78.68;99575.44;1715111;83;21184;-86
2023/04/22 11:14:52;;;;;;;10.28;2.60;;;;;;;12.70;77.79;99567.02;1675272;84;21231;-86
2023/04/22 11:18:02;;;;;;;10.08;2.60;;;;;;;12.95;77.47;99569.16;1684656;84;21167;-86
2023/04/22 11:21:12;;;;;;;9.63;2.70;;;;;;;13.21;77.46;99571.89;1677785;84;21206;-86
2023/04/22 11:24:17;;;;;;;8.13;2.85;;;;;;;13.32;76.69;99583.36;1676807;84;21177;-86
2023/04/22 11:27:29;;;;;;;6.78;2.40;;;;;;;13.22;74.07;99607.97;1711223;83;21194;-86
2023/04/22 11:30:31;;;;;;;7.67;3.55;;;;;;;13.17;72.11;99588.47;1716374;82;21323;-86
2023/04/22 11:33:38;;;;;;;11.95;2.90;;;;;;;13.07;70.80;99588.05;1714929;83;21247;-86
2023/04/22 11:36:47;;;;;;;6.22;2.92;;;;;;;13.08;71.45;99585.65;1696203;83;21217;-86
2023/04/22 11:39:52;;;;;;;7.12;3.20;;;;;;;13.23;73.78;99588.22;1720609;82;21209;-87
2023/04/22 11:42:59;;;;;;;6.30;2.85;;;;;;;13.32;73.05;99584.20;1716123;82;21820;-87
2023/04/22 11:45:58;;;;;;;5.25;3.12;;;;;;;13.36;72.96;99590.97;1716392;83;21811;-86
2023/04/22 11:49:25;;;;;;;6.72;3.40;;;;;;;13.43;72.25;99591.80;1717027;83;21782;-86
2023/04/22 11:52:30;;;;;;;6.67;2.55;;;;;;;13.52;71.59;99587.77;1710833;83;21784;-86
2023/04/22 11:55:41;;;;;;;8.38;3.10;;;;;;;13.61;72.13;99587.03;1692886;84;21730;-86
2023/04/22 11:58:47;;;;;;;6.40;3.10;;;;;;;13.68;70.79;99585.62;1710404;83;21199;-86
2023/04/22 12:01:54;;;;;;;5.75;2.70;;;;;;;13.74;69.81;99593.04;1714370;83;21859;-86
2023/04/22 12:05:00;;;;;;;12.00;4.55;;;;;;;13.73;70.22;99584.45;1711587;83;21128;-86
2023/04/22 12:08:06;;;;;;;5.28;2.75;;;;;;;13.75;68.80;99593.34;1671835;84;21317;-86
2023/04/22 12:11:14;;;;;;;3.92;3.00;;;;;;;13.76;68.68;99586.78;1693511;83;21793;-86
2023/04/22 12:14:20;;;;;;;11.48;5.95;;;;;;;13.75;67.08;99600.22;1693887;84;21774;-86
2023/04/22 12:17:30;;;;;;;9.35;3.62;;;;;;;13.79;66.88;99591.33;1713269;83;21164;-86
2023/04/22 12:20:43;;;;;;;3.55;2.40;;;;;;;13.87;66.02;99597.11;1678364;84;21203;-86
2023/04/22 12:23:53;;;;;;;4.12;1.92;;;;;;;13.89;65.65;99591.42;1713524;83;21176;-86
2023/04/22 12:27:00;;;;;;;5.42;1.82;;;;;;;13.70;65.47;99596.73;1715014;83;21194;-87
2023/04/22 12:30:05;;;;;;;5.62;2.08;;;;;;;13.65;66.59;99591.58;1711745;83;21215;-86
2023/04/22 12:33:12;;;;;;;4.92;2.35;;;;;;;13.64;66.29;99595.36;1709360;83;21313;-86
2023/04/22 12:36:19;;;;;;;3.02;1.82;;;;;;;13.61;65.57;99598.55;1692772;84;21492;-86
2023/04/22 12:39:26;;;;;;;5.80;1.87;;;;;;;13.59;65.13;99595.16;1717153;83;21757;-86
2023/04/22 12:42:32;;;;;;;2.87;1.72;;;;;;;13.57;65.14;99598.66;1710215;83;21191;-86
2023/04/22 12:45:39;;;;;;;2.98;1.80;;;;;;;13.59;64.37;99603.39;1694132;84;21856;-86
2023/04/22 12:48:45;;;;;;;4.60;1.87;;;;;;;13.64;65.01;99602.23;1709507;83;21196;-86
2023/04/22 12:51:52;;;;;;;6.47;1.42;;;;;;;13.69;65.43;99601.92;1712528;83;21240;-86
2023/04/22 12:54:58;;;;;;;8.75;2.05;;;;;;;13.69;65.35;99604.67;1713418;83;21201;-86
2023/04/22 12:57:57;;;;;;;8.43;2.50;;;;;;;13.70;63.55;99600.02;1713676;83;21184;-86
2023/04/22 13:01:04;;;;;;;3.40;2.17;;;;;;;13.76;63.75;99601.37;1678056;84;21199;-86
2023/04/22 13:04:09;;;;;;;6.80;1.92;;;;;;;13.84;64.41;99598.09;1713732;83;21230;-86
2023/04/22 13:07:16;;;;;;;2.02;1.80;;;;;;;13.86;64.76;99599.55;1693642;84;21159;-86
2023/04/22 13:10:23;;;;;;;2.75;1.80;;;;;;;13.95;65.02;99596.05;1713399;83;21227;-86
2023/04/22 13:13:28;;;;;;;3.75;1.47;;;;;;;13.99;62.99;99607.77;1677886;84;21191;-86
2023/04/22 13:16:34;;;;;;;10.13;2.37;;;;;;;14.04;59.94;99602.47;1687823;84;21254;-86
2023/04/22 13:19:40;;;;;;;3.62;1.42;;;;;;;14.06;61.30;99604.99;1681122;84;21265;-86
2023/04/22 13:22:47;;;;;;;2.98;1.27;;;;;;;14.05;61.18;99607.44;1712885;83;21251;-86
2023/04/22 13:25:52;;;;;;;6.00;1.62;;;;;;;13.98;61.13;99607.46;1689947;84;21247;-85
2023/04/22 13:28:57;;;;;;;5.80;2.02;;;;;;;13.92;59.45;99612.95;1714365;83;21176;-86
2023/04/22 13:32:02;;;;;;;6.03;2.08;;;;;;;13.89;59.64;99612.03;1675686;84;21199;-86
2023/04/22 13:35:08;;;;;;;11.08;2.52;;;;;;;13.88;60.33;99618.06;1716651;83;21209;-86
2023/04/22 13:38:14;;;;;;;5.28;2.50;;;;;;;13.85;61.20;99614.36;1709238;83;21235;-86
2023/04/22 13:41:20;;;;;;;8.40;2.50;;;;;;;13.90;62.39;99612.34;1710483;83;21216;-86
2023/04/22 13:44:26;;;;;;;12.40;2.87;;;;;;;13.92;62.97;99617.92;1679376;84;21183;-86
2023/04/22 13:47:32;;;;;;;3.90;1.95;;;;;;;14.00;63.61;99612.73;1710037;83;21243;-86
2023/04/22 13:50:41;;;;;;;8.53;2.83;;;;;;;14.05;63.52;99612.40;1676367;84;21149;-86
2023/04/22 13:53:46;;;;;;;11.43;2.00;;;;;;;14.02;64.01;99621.09;1693189;84;21187;-86
2023/04/22 13:56:52;;;;;;;8.45;2.20;;;;;;;14.02;64.83;99622.47;1712305;83;21257;-86
2023/04/22 13:59:57;;;;;;;5.40;2.25;;;;;;;13.97;65.59;99620.91;1710925;83;21194;-86
2023/04/22 14:03:04;;;;;;;9.43;2.60;;;;;;;13.91;65.64;99622.27;1712097;83;21180;-86
2023/04/22 14:06:09;;;;;;;3.47;1.98;;;;;;;13.96;64.59;99634.31;1678468;84;21238;-86
2023/04/22 14:09:14;;;;;;;10.08;2.60;;;;;;;14.03;64.37;99631.03;1651382;85;21249;-86
2023/04/22 14:12:19;;;;;;;4.53;2.00;;;;;;;14.01;64.82;99635.04;1727799;82;21196;-86
2023/04/22 14:15:25;;;;;;;4.90;2.55;;;;;;;13.94;64.37;99636.98;1693278;84;21208;-86
2023/04/22 14:18:35;;;;;;;8.15;2.40;;;;;;;13.94;64.40;99641.94;1676407;85;21204;-86
2023/04/22 14:21:40;;;;;;;5.67;2.20;;;;;;;13.85;64.94;99647.34;1681345;83;21782;-86
2023/04/22 14:24:47;;;;;;;5.92;2.37;;;;;;;13.78;64.15;99655.62;1681906;85;21722;-87
2023/04/22 14:27:54;;;;;;;5.40;2.40;;;;;;;13.77;63.98;99653.05;1683267;83;21195;-86
2023/04/22 14:30:59;;;;;;;8.40;3.15;;;;;;;13.71;66.06;99669.03;1679219;84;21231;-87